createdAt,value
2022-12-26T00:00:28.768Z,4.68
2022-12-26T00:02:55.579Z,4.55
2022-12-26T00:05:22.346Z,4.65
2022-12-26T00:07:49.263Z,4.32
2022-12-26T00:10:15.975Z,4.40
2022-12-26T00:12:42.790Z,3.88
2022-12-26T00:15:09.443Z,4.35
2022-12-26T00:17:36.154Z,4.50
2022-12-26T00:20:03.791Z,4.45
2022-12-26T00:22:30.471Z,3.90
2022-12-26T00:24:57.374Z,3.92
2022-12-26T00:27:24.143Z,4.05
2022-12-26T00:29:50.848Z,4.05
2022-12-26T00:32:17.721Z,4.22
2022-12-26T00:34:44.388Z,4.47
2022-12-26T00:37:11.130Z,4.07
2022-12-26T00:39:37.831Z,3.78
2022-12-26T00:42:04.648Z,4.40
2022-12-26T00:44:31.380Z,4.05
2022-12-26T00:46:58.184Z,3.92
2022-12-26T00:49:25.141Z,3.88
2022-12-26T00:51:51.859Z,3.75
2022-12-26T00:54:18.588Z,4.18
2022-12-26T00:56:45.294Z,4.00
2022-12-26T00:59:12.759Z,3.90
2022-12-26T01:01:39.721Z,4.10
2022-12-26T01:04:06.723Z,4.90
2022-12-26T01:06:33.757Z,3.90
2022-12-26T01:09:00.474Z,3.90
2022-12-26T01:11:42.484Z,4.30
2022-12-26T01:14:17.381Z,4.03
2022-12-26T01:16:45.955Z,4.00
2022-12-26T01:19:13.915Z,4.47
2022-12-26T01:21:41.340Z,3.78
2022-12-26T01:24:08.196Z,3.50
2022-12-26T01:26:34.898Z,3.72
2022-12-26T01:29:01.765Z,3.80
2022-12-26T01:31:28.449Z,3.63
2022-12-26T01:33:55.321Z,4.05
2022-12-26T01:36:22.038Z,3.67
2022-12-26T01:38:48.715Z,3.70
2022-12-26T01:41:20.401Z,3.90
2022-12-26T01:43:59.280Z,3.80
2022-12-26T01:46:38.811Z,3.88
2022-12-26T01:49:36.068Z,3.78
2022-12-26T01:52:33.607Z,4.00
2022-12-26T01:55:00.944Z,4.15
2022-12-26T01:57:32.309Z,3.55
2022-12-26T02:00:01.846Z,3.90
2022-12-26T02:02:30.190Z,3.90
2022-12-26T02:05:16.778Z,3.90
2022-12-26T02:07:45.847Z,3.78
2022-12-26T02:10:20.878Z,3.97
2022-12-26T02:12:48.768Z,3.72
2022-12-26T02:15:17.919Z,3.80
2022-12-26T02:17:45.050Z,4.03
2022-12-26T02:20:22.174Z,3.80
2022-12-26T02:23:29.732Z,3.30
2022-12-26T02:26:22.867Z,3.80
2022-12-26T02:29:26.554Z,3.88
2022-12-26T02:32:07.710Z,3.40
2022-12-26T02:34:53.930Z,3.58
2022-12-26T02:37:32.417Z,3.55
2022-12-26T02:40:36.445Z,3.83
2022-12-26T02:43:23.396Z,3.47
2022-12-26T02:46:51.824Z,3.60
2022-12-26T02:50:00.780Z,3.33
2022-12-26T02:52:52.735Z,3.78
2022-12-26T02:55:41.119Z,3.35
2022-12-26T02:58:42.678Z,3.47
2022-12-26T03:01:36.463Z,3.80
2022-12-26T03:04:23.272Z,3.83
2022-12-26T03:07:13.523Z,3.55
2022-12-26T03:10:00.821Z,3.88
2022-12-26T03:13:03.399Z,3.83
2022-12-26T03:15:55.172Z,3.50
2022-12-26T03:18:58.916Z,3.40
2022-12-26T03:21:10.648Z,3.60
2022-12-26T03:23:39.887Z,3.63
2022-12-26T03:26:28.302Z,3.50
2022-12-26T03:29:18.801Z,3.65
2022-12-26T03:31:46.046Z,3.25
2022-12-26T03:34:18.759Z,3.20
2022-12-26T03:37:24.635Z,3.28
2022-12-26T03:40:45.349Z,3.08
2022-12-26T03:44:02.190Z,3.75
2022-12-26T03:47:05.481Z,3.40
2022-12-26T03:49:54.545Z,5.13
2022-12-26T03:52:45.985Z,3.30
2022-12-26T03:55:36.724Z,3.25
2022-12-26T03:58:38.315Z,3.15
2022-12-26T04:01:27.938Z,3.50
2022-12-26T04:04:15.467Z,3.70
2022-12-26T04:07:07.864Z,3.13
2022-12-26T04:09:58.528Z,3.30
2022-12-26T04:12:44.700Z,3.30
2022-12-26T04:15:56.468Z,3.50
2022-12-26T04:18:47.512Z,3.47
2022-12-26T04:21:51.266Z,3.50
2022-12-26T04:24:42.156Z,3.30
2022-12-26T04:27:31.471Z,3.40
2022-12-26T04:30:16.701Z,3.20
2022-12-26T04:33:04.734Z,3.55
2022-12-26T04:35:53.712Z,3.30
2022-12-26T04:38:43.016Z,3.40
2022-12-26T04:41:29.746Z,3.50
2022-12-26T04:44:07.134Z,3.30
2022-12-26T04:46:36.042Z,3.13
2022-12-26T04:49:29.592Z,3.58
2022-12-26T04:51:57.469Z,3.20
2022-12-26T04:54:25.026Z,3.58
2022-12-26T04:56:51.804Z,3.70
2022-12-26T04:59:19.169Z,3.17
2022-12-26T05:02:04.331Z,3.55
2022-12-26T05:04:50.003Z,3.38
2022-12-26T05:07:41.050Z,3.30
2022-12-26T05:10:13.790Z,3.20
2022-12-26T05:12:40.856Z,3.00
2022-12-26T05:15:08.391Z,3.13
2022-12-26T05:17:53.779Z,2.92
2022-12-26T05:20:49.912Z,2.92
2022-12-26T05:23:44.955Z,3.33
2022-12-26T05:26:34.934Z,3.60
2022-12-26T05:29:04.029Z,3.20
2022-12-26T05:31:35.468Z,3.13
2022-12-26T05:34:07.249Z,3.20
2022-12-26T05:36:38.107Z,3.15
2022-12-26T05:39:06.046Z,3.03
2022-12-26T05:41:32.817Z,3.08
2022-12-26T05:43:59.561Z,2.95
2022-12-26T05:46:26.672Z,2.97
2022-12-26T05:48:53.496Z,3.30
2022-12-26T05:51:20.727Z,3.05
2022-12-26T05:53:48.682Z,2.88
2022-12-26T05:56:17.151Z,2.97
2022-12-26T05:58:44.392Z,2.60
2022-12-26T06:01:19.624Z,2.70
2022-12-26T06:03:48.919Z,3.20
2022-12-26T06:06:16.026Z,2.80
2022-12-26T06:08:42.985Z,2.67
2022-12-26T06:11:12.056Z,2.78
2022-12-26T06:13:39.900Z,2.80
2022-12-26T06:16:08.439Z,2.92
2022-12-26T06:18:35.629Z,2.80
2022-12-26T06:21:11.010Z,2.95
2022-12-26T06:23:38.354Z,2.65
2022-12-26T06:26:05.668Z,3.10
2022-12-26T06:28:33.772Z,3.08
2022-12-26T06:31:05.465Z,3.00
2022-12-26T06:33:32.444Z,3.20
2022-12-26T06:36:11.296Z,3.10
2022-12-26T06:38:38.147Z,3.28
2022-12-26T06:41:06.294Z,3.30
2022-12-26T06:43:33.263Z,3.20
2022-12-26T06:46:01.242Z,2.90
2022-12-26T06:48:28.655Z,2.80
2022-12-26T06:50:56.028Z,2.90
2022-12-26T06:53:26.129Z,2.90
2022-12-26T06:55:53.085Z,2.95
2022-12-26T06:58:19.867Z,3.13
2022-12-26T07:00:46.637Z,3.05
2022-12-26T07:03:13.654Z,3.10
2022-12-26T07:05:40.468Z,2.80
2022-12-26T07:08:07.425Z,3.20
2022-12-26T07:10:37.554Z,3.13
2022-12-26T07:13:04.395Z,3.03
2022-12-26T07:15:31.577Z,3.20
2022-12-26T07:17:58.372Z,3.10
2022-12-26T07:20:25.244Z,2.80
2022-12-26T07:22:52.089Z,2.95
2022-12-26T07:25:18.710Z,3.17
2022-12-26T07:27:45.466Z,2.95
2022-12-26T07:30:12.483Z,2.95
2022-12-26T07:32:39.295Z,3.30
2022-12-26T07:35:06.388Z,3.03
2022-12-26T07:37:33.144Z,3.53
2022-12-26T07:39:59.872Z,3.38
2022-12-26T07:42:26.718Z,3.28
2022-12-26T07:44:53.540Z,3.30
2022-12-26T07:47:20.343Z,3.05
2022-12-26T07:49:47.073Z,3.00
2022-12-26T07:52:13.827Z,3.17
2022-12-26T07:54:40.665Z,3.08
2022-12-26T07:57:46.031Z,3.40
2022-12-26T07:59:54.592Z,3.25
2022-12-26T08:02:21.655Z,3.10
2022-12-26T08:04:48.753Z,3.13
2022-12-26T08:07:15.542Z,3.30
2022-12-26T08:09:44.959Z,3.42
2022-12-26T08:12:13.183Z,3.85
2022-12-26T08:14:40.895Z,3.05
2022-12-26T08:17:08.309Z,3.58
2022-12-26T08:19:35.114Z,3.22
2022-12-26T08:22:01.962Z,3.63
2022-12-26T08:24:28.710Z,4.07
2022-12-26T08:26:55.454Z,3.75
2022-12-26T08:29:22.404Z,3.90
2022-12-26T08:31:49.143Z,3.55
2022-12-26T08:34:15.895Z,3.72
2022-12-26T08:36:42.636Z,3.45
2022-12-26T08:39:09.637Z,4.07
2022-12-26T08:41:36.350Z,3.72
2022-12-26T08:44:26.324Z,4.00
2022-12-26T08:46:49.890Z,3.90
2022-12-26T08:49:16.777Z,3.30
2022-12-26T08:51:43.431Z,3.83
2022-12-26T08:54:10.297Z,3.60
2022-12-26T08:56:37.095Z,3.72
2022-12-26T08:59:03.834Z,3.10
2022-12-26T09:01:31.616Z,3.67
2022-12-26T09:04:02.303Z,4.07
2022-12-26T09:06:30.012Z,4.13
2022-12-26T09:08:56.722Z,3.15
2022-12-26T09:11:27.824Z,3.08
2022-12-26T09:13:56.406Z,2.05
2022-12-26T09:16:25.584Z,1.60
2022-12-26T09:18:59.006Z,0.70
2022-12-26T09:21:26.152Z,0.50
2022-12-26T09:24:00.348Z,0.60
2022-12-26T09:26:28.579Z,0.60
2022-12-26T09:28:55.995Z,0.80
2022-12-26T09:31:29.025Z,0.80
2022-12-26T09:33:55.856Z,0.75
2022-12-26T09:36:25.777Z,0.80
2022-12-26T09:38:54.912Z,0.82
2022-12-26T09:41:57.019Z,1.20
2022-12-26T09:45:17.716Z,0.90
2022-12-26T09:48:00.861Z,0.70
2022-12-26T09:50:30.517Z,0.70
2022-12-26T09:53:18.610Z,0.70
2022-12-26T09:55:52.561Z,1.27
2022-12-26T09:58:31.817Z,2.05
2022-12-26T10:01:27.191Z,1.80
2022-12-26T10:03:58.304Z,2.38
2022-12-26T10:06:31.475Z,2.13
2022-12-26T10:09:09.349Z,2.10
2022-12-26T10:12:02.332Z,1.80
2022-12-26T10:14:51.803Z,1.42
2022-12-26T10:17:28.459Z,1.60
2022-12-26T10:20:04.425Z,1.60
2022-12-26T10:23:02.558Z,1.90
2022-12-26T10:25:49.055Z,1.55
2022-12-26T10:28:39.316Z,1.58
2022-12-26T10:31:11.715Z,0.40
2022-12-26T10:33:53.241Z,0.68
2022-12-26T10:36:42.072Z,0.85
2022-12-26T10:39:18.451Z,0.70
2022-12-26T10:41:51.599Z,0.40
2022-12-26T10:44:21.353Z,0.40
2022-12-26T10:47:14.534Z,0.40
2022-12-26T10:49:43.428Z,0.40
2022-12-26T10:52:10.768Z,0.30
2022-12-26T10:54:38.478Z,0.40
2022-12-26T10:57:06.233Z,0.40
2022-12-26T10:59:40.735Z,0.40
2022-12-26T11:02:33.890Z,0.70
2022-12-26T11:05:22.086Z,1.15
2022-12-26T11:07:54.104Z,0.63
2022-12-26T11:10:24.683Z,0.80
2022-12-26T11:13:02.049Z,0.70
2022-12-26T11:15:35.246Z,0.47
2022-12-26T11:18:20.858Z,0.40
2022-12-26T11:20:48.037Z,0.60
2022-12-26T11:23:31.813Z,0.90
2022-12-26T11:26:00.944Z,0.70
2022-12-26T11:28:36.325Z,0.70
2022-12-26T11:31:07.870Z,0.90
2022-12-26T11:33:41.573Z,0.95
2022-12-26T11:36:12.420Z,1.00
2022-12-26T11:39:05.099Z,1.65
2022-12-26T11:41:40.296Z,2.08
2022-12-26T11:44:11.588Z,2.30
2022-12-26T11:47:13.255Z,2.35
2022-12-26T11:49:46.354Z,1.77
2022-12-26T11:52:38.197Z,2.20
2022-12-26T11:55:51.176Z,2.10
2022-12-26T11:58:20.691Z,1.45
2022-12-26T12:01:10.815Z,1.10
2022-12-26T12:03:48.595Z,1.30
2022-12-26T12:06:44.259Z,1.60
2022-12-26T12:09:46.601Z,2.67
2022-12-26T12:12:31.483Z,2.20
2022-12-26T12:15:16.648Z,2.05
2022-12-26T12:17:56.524Z,3.13
2022-12-26T12:20:51.863Z,5.13
2022-12-26T12:24:00.530Z,5.05
2022-12-26T12:26:47.386Z,2.25
2022-12-26T12:29:41.999Z,1.80
2022-12-26T12:32:23.314Z,2.35
2022-12-26T12:35:15.436Z,1.90
2022-12-26T12:37:54.673Z,1.50
2022-12-26T12:40:38.339Z,1.55
2022-12-26T12:43:37.512Z,1.60
2022-12-26T12:46:19.693Z,1.45
2022-12-26T12:49:18.753Z,1.48
2022-12-26T12:52:13.293Z,2.10
2022-12-26T12:55:03.995Z,1.70
2022-12-26T12:57:52.489Z,1.42
2022-12-26T13:00:24.659Z,1.38
2022-12-26T13:03:10.900Z,1.48
2022-12-26T13:06:09.981Z,1.50
2022-12-26T13:08:45.495Z,1.60
2022-12-26T13:11:26.198Z,1.50
2022-12-26T13:13:57.423Z,1.58
2022-12-26T13:16:34.063Z,1.65
2022-12-26T13:19:04.397Z,1.65
2022-12-26T13:21:35.309Z,1.75
2022-12-26T13:24:25.292Z,1.75
2022-12-26T13:26:58.358Z,1.67
2022-12-26T13:29:46.767Z,1.88
2022-12-26T13:32:18.088Z,1.30
2022-12-26T13:34:46.229Z,1.40
2022-12-26T13:37:55.891Z,1.60
2022-12-26T13:40:26.808Z,1.23
2022-12-26T13:43:17.295Z,1.30
2022-12-26T13:45:50.276Z,1.20
2022-12-26T13:48:32.727Z,1.55
2022-12-26T13:51:01.248Z,1.25
2022-12-26T13:53:33.475Z,1.50
2022-12-26T13:56:45.677Z,1.70
2022-12-26T13:59:54.008Z,1.60
2022-12-26T14:10:11.202Z,1.45
2022-12-26T14:12:50.315Z,1.48
2022-12-26T14:15:49.061Z,1.52
2022-12-26T14:18:56.997Z,1.33
2022-12-26T14:21:54.537Z,1.52
2022-12-26T14:24:37.635Z,2.67
2022-12-26T14:27:34.063Z,3.70
2022-12-26T14:30:23.353Z,3.50
2022-12-26T14:33:11.849Z,2.90
2022-12-26T14:36:22.046Z,1.90
2022-12-26T14:39:30.114Z,1.73
2022-12-26T14:42:27.727Z,1.48
2022-12-26T14:44:56.908Z,1.65
2022-12-26T14:47:48.244Z,1.50
2022-12-26T14:50:42.671Z,1.80
2022-12-26T14:53:30.564Z,2.22
2022-12-26T14:56:10.696Z,1.70
2022-12-26T14:59:18.835Z,1.67
2022-12-26T15:01:48.939Z,3.10
2022-12-26T15:04:43.066Z,3.05
2022-12-26T15:08:02.693Z,2.03
2022-12-26T15:11:24.963Z,1.80
2022-12-26T15:14:43.715Z,2.15
2022-12-26T15:17:34.838Z,1.70
2022-12-26T15:20:44.866Z,1.30
2022-12-26T15:23:33.653Z,1.30
2022-12-26T15:26:39.172Z,0.90
2022-12-26T15:29:40.663Z,1.33
2022-12-26T15:32:39.770Z,1.10
2022-12-26T15:35:32.296Z,1.30
2022-12-26T15:38:39.222Z,1.05
2022-12-26T15:41:24.128Z,1.27
2022-12-26T15:44:21.134Z,1.30
2022-12-26T15:47:02.969Z,1.42
2022-12-26T16:00:00.900Z,1.23
2022-12-26T16:02:32.348Z,1.70
2022-12-26T16:05:28.381Z,1.60
2022-12-26T16:08:09.997Z,1.58
2022-12-26T16:10:37.772Z,1.90
2022-12-26T16:13:24.882Z,1.35
2022-12-26T16:15:56.668Z,1.30
2022-12-26T16:18:27.837Z,1.60
2022-12-26T16:21:16.397Z,1.70
2022-12-26T16:23:44.435Z,2.10
2022-12-26T16:26:19.216Z,2.10
2022-12-26T16:28:46.119Z,1.73
2022-12-26T16:31:20.197Z,1.40
2022-12-26T16:33:47.588Z,1.45
2022-12-26T16:36:28.329Z,1.77
2022-12-26T16:38:55.655Z,1.52
2022-12-26T16:41:28.021Z,1.98
2022-12-26T16:43:56.575Z,3.42
2022-12-26T16:46:26.671Z,0.77
2022-12-26T16:48:58.983Z,0.40
2022-12-26T16:51:52.929Z,0.30
2022-12-26T16:54:37.855Z,0.10
2022-12-26T16:57:16.784Z,0.38
2022-12-26T16:59:51.162Z,0.10
2022-12-26T17:02:22.019Z,0.20
2022-12-26T17:05:04.707Z,0.10
2022-12-26T17:07:31.974Z,0.10
2022-12-26T17:10:00.365Z,0.25
2022-12-26T17:12:38.120Z,0.10
2022-12-26T17:15:06.154Z,0.30
2022-12-26T17:17:38.225Z,0.10
2022-12-26T17:20:43.796Z,0.60
2022-12-26T17:23:33.531Z,0.13
2022-12-26T17:26:26.174Z,0.82
2022-12-26T17:28:53.199Z,0.22
2022-12-26T17:31:28.575Z,0.20
2022-12-26T17:33:59.193Z,0.60
2022-12-26T17:39:26.296Z,0.75
2022-12-26T17:41:56.052Z,0.40
2022-12-26T17:44:45.525Z,0.20
2022-12-26T17:47:22.732Z,0.63
2022-12-26T17:49:50.915Z,0.77
2022-12-26T17:52:20.615Z,0.28
2022-12-26T17:54:49.364Z,0.30
2022-12-26T17:57:22.487Z,0.28
2022-12-26T17:59:50.035Z,0.50
2022-12-26T18:02:16.788Z,2.80
2022-12-26T18:04:44.175Z,6.88
2022-12-26T18:07:23.208Z,5.47
2022-12-26T18:09:54.020Z,0.40
2022-12-26T18:12:20.703Z,0.43
2022-12-26T18:14:48.496Z,0.60
2022-12-26T18:17:18.423Z,0.60
2022-12-26T18:19:46.388Z,0.73
2022-12-26T18:22:15.428Z,1.30
2022-12-26T18:24:42.520Z,1.10
2022-12-26T18:27:27.798Z,0.80
2022-12-26T18:29:54.589Z,0.98
2022-12-26T18:32:29.836Z,1.13
2022-12-26T18:34:57.182Z,0.60
2022-12-26T18:37:26.472Z,0.60
2022-12-26T18:39:53.773Z,3.60
2022-12-26T18:42:20.549Z,3.30
2022-12-26T18:44:47.633Z,1.00
2022-12-26T18:47:16.632Z,1.13
2022-12-26T18:49:43.834Z,1.20
2022-12-26T18:52:11.013Z,1.38
2022-12-26T18:54:44.581Z,2.08
2022-12-26T18:57:18.568Z,1.63
2022-12-26T18:59:46.396Z,1.70
2022-12-26T19:02:18.792Z,2.40
2022-12-26T19:04:48.810Z,5.97
2022-12-26T19:07:17.626Z,4.40
2022-12-26T19:09:45.760Z,5.85
2022-12-26T19:12:13.147Z,2.35
2022-12-26T19:14:40.461Z,2.90
2022-12-26T19:17:07.147Z,3.10
2022-12-26T19:19:37.333Z,2.38
2022-12-26T19:22:04.021Z,2.30
2022-12-26T19:24:30.630Z,2.10
2022-12-26T19:26:57.330Z,2.28
2022-12-26T19:29:24.304Z,5.88
2022-12-26T19:31:51.057Z,3.17
2022-12-26T19:34:17.967Z,3.80
2022-12-26T19:36:46.758Z,3.33
2022-12-26T19:39:13.524Z,3.30
2022-12-26T19:41:40.493Z,3.40
2022-12-26T19:44:07.185Z,3.70
2022-12-26T19:46:34.067Z,3.65
2022-12-26T19:49:01.423Z,3.40
2022-12-26T19:51:28.384Z,3.92
2022-12-26T19:53:59.860Z,2.95
2022-12-26T19:56:27.567Z,3.28
2022-12-26T19:58:56.854Z,3.38
2022-12-26T20:01:26.415Z,3.60
2022-12-26T20:03:57.927Z,3.55
2022-12-26T20:06:26.633Z,4.10
2022-12-26T20:08:57.037Z,3.60
2022-12-26T20:11:27.850Z,4.13
2022-12-26T20:13:54.729Z,4.18
2022-12-26T20:17:03.281Z,4.22
2022-12-26T20:19:10.909Z,4.05
2022-12-26T20:21:38.722Z,3.90
2022-12-26T20:24:06.168Z,4.40
2022-12-26T20:26:33.476Z,4.68
2022-12-26T20:29:02.095Z,7.38
2022-12-26T20:31:29.676Z,3.70
2022-12-26T20:34:00.960Z,3.88
2022-12-26T20:36:29.667Z,4.05
2022-12-26T20:38:58.717Z,3.88
2022-12-26T20:41:26.452Z,4.22
2022-12-26T20:43:53.171Z,4.25
2022-12-26T20:46:22.563Z,4.30
2022-12-26T20:48:49.945Z,4.30
2022-12-26T20:51:20.096Z,4.10
2022-12-26T20:53:46.977Z,4.28
2022-12-26T20:56:13.828Z,4.22
2022-12-26T20:58:40.697Z,4.00
2022-12-26T21:01:11.204Z,4.80
2022-12-26T21:03:38.990Z,5.00
2022-12-26T21:06:14.235Z,4.20
2022-12-26T21:08:42.583Z,4.63
2022-12-26T21:11:15.452Z,4.80
2022-12-26T21:13:43.144Z,4.93
2022-12-26T21:16:25.154Z,5.38
2022-12-26T21:18:52.068Z,6.30
2022-12-26T21:21:27.311Z,5.13
2022-12-26T21:23:59.780Z,4.72
2022-12-26T21:26:27.141Z,5.35
2022-12-26T21:28:58.601Z,5.22
2022-12-26T21:31:25.886Z,5.03
2022-12-26T21:33:56.329Z,4.88
2022-12-26T21:36:24.083Z,4.90
2022-12-26T21:38:51.195Z,3.90
2022-12-26T21:41:17.830Z,3.42
2022-12-26T21:43:44.613Z,3.20
2022-12-26T21:46:14.246Z,3.45
2022-12-26T21:48:50.406Z,3.50
2022-12-26T21:51:18.673Z,3.03
2022-12-26T21:53:46.291Z,3.10
2022-12-26T21:56:14.802Z,3.17
2022-12-26T21:59:01.822Z,3.45
2022-12-26T22:01:29.487Z,3.20
2022-12-26T22:04:14.995Z,3.78
2022-12-26T22:06:42.956Z,3.40
2022-12-26T22:09:18.676Z,3.67
2022-12-26T22:12:04.241Z,3.78
2022-12-26T22:14:31.422Z,3.80
2022-12-26T22:16:58.100Z,4.00
2022-12-26T22:19:25.291Z,3.92
2022-12-26T22:21:52.960Z,3.95
2022-12-26T22:24:21.635Z,4.10
2022-12-26T22:26:48.895Z,3.78
2022-12-26T22:29:15.865Z,4.35
2022-12-26T22:31:42.567Z,4.30
2022-12-26T22:34:14.450Z,4.38
2022-12-26T22:36:41.851Z,4.07
2022-12-26T22:39:12.200Z,4.18
2022-12-26T22:41:39.257Z,4.40
2022-12-26T22:44:06.645Z,3.97
2022-12-26T22:46:33.490Z,3.92
2022-12-26T22:49:00.290Z,4.05
2022-12-26T22:51:27.762Z,4.15
2022-12-26T22:53:59.975Z,4.05
2022-12-26T22:56:27.457Z,3.97
2022-12-26T22:58:55.900Z,3.90
2022-12-26T23:01:23.817Z,3.50
2022-12-26T23:03:50.551Z,3.90
2022-12-26T23:06:28.676Z,4.15
2022-12-26T23:08:57.518Z,3.55
2022-12-26T23:11:32.157Z,3.47
2022-12-26T23:14:01.887Z,3.33
2022-12-26T23:16:34.614Z,3.90
2022-12-26T23:19:27.067Z,3.55
2022-12-26T23:21:54.094Z,3.78
2022-12-26T23:24:24.065Z,3.63
2022-12-26T23:27:17.607Z,3.90
2022-12-26T23:30:03.145Z,3.70
2022-12-26T23:32:29.852Z,3.65
2022-12-26T23:34:56.490Z,3.60
2022-12-26T23:37:23.838Z,3.72
2022-12-26T23:39:50.466Z,3.63
2022-12-26T23:42:17.230Z,3.70
2022-12-26T23:44:44.113Z,3.85
2022-12-26T23:47:11.284Z,3.40
2022-12-26T23:49:37.918Z,3.33
2022-12-26T23:52:04.981Z,3.65
2022-12-26T23:54:31.789Z,3.55
2022-12-26T23:56:58.524Z,3.25
2022-12-26T23:59:25.251Z,3.40
